Time;durP1;ratioP1;P1;durP2;ratioP2;P2;SDS_P1;SDS_P2;PMS_P1;PMS_P2;Temp;Humidity;BMP_temperature;BMP_pressure;BME280_temperature;BME280_humidity;BME280_pressure;Samples;Min_cycle;Max_cycle;Signal;HPM_P1;HPM_P2
2021/08/16 00:01:52;;;;;;;4.60;1.60;;;;;;;;;;5094336;28;20028;-86
2021/08/16 00:04:19;;;;;;;5.53;1.90;;;;;;;;;;5095343;28;20047;-84
2021/08/16 00:06:45;;;;;;;6.10;1.65;;;;;;;;;;5094299;28;20032;-85
2021/08/16 00:09:11;;;;;;;4.95;1.23;;;;;;;;;;5093995;28;20058;-84
2021/08/16 00:11:39;;;;;;;5.90;1.92;;;;;;;;;;5093976;28;20032;-84
2021/08/16 00:14:05;;;;;;;2.58;1.27;;;;;;;;;;5093981;28;20024;-85
2021/08/16 00:16:31;;;;;;;3.33;1.20;;;;;;;;;;5093830;28;20495;-85
2021/08/16 00:18:58;;;;;;;3.50;1.30;;;;;;;;;;5093818;28;20537;-85
2021/08/16 00:21:24;;;;;;;1.95;1.00;;;;;;;;;;5093906;28;20035;-83
2021/08/16 00:23:50;;;;;;;4.95;1.38;;;;;;;;;;5093717;28;20115;-85
2021/08/16 00:26:16;;;;;;;5.15;1.27;;;;;;;;;;5093570;28;20408;-86
2021/08/16 00:28:43;;;;;;;3.55;1.10;;;;;;;;;;5093633;28;20488;-85
2021/08/16 00:31:09;;;;;;;2.83;1.25;;;;;;;;;;5093670;28;20024;-83
2021/08/16 00:33:35;;;;;;;4.85;1.70;;;;;;;;;;5093535;28;20034;-86
2021/08/16 00:36:01;;;;;;;3.72;1.30;;;;;;;;;;5093447;28;20040;-85
2021/08/16 00:38:28;;;;;;;3.13;1.30;;;;;;;;;;5093531;28;20030;-84
2021/08/16 00:40:54;;;;;;;6.35;2.20;;;;;;;;;;5095532;28;20062;-83
2021/08/16 00:43:20;;;;;;;6.00;2.15;;;;;;;;;;5093041;28;20499;-85
2021/08/16 00:45:47;;;;;;;7.75;2.20;;;;;;;;;;5092316;28;20036;-85
2021/08/16 00:48:13;;;;;;;5.43;2.20;;;;;;;;;;5093182;28;20056;-86
2021/08/16 00:50:39;;;;;;;5.80;2.78;;;;;;;;;;5093271;28;20032;-86
2021/08/16 00:53:06;;;;;;;5.43;2.40;;;;;;;;;;5094973;28;20357;-86
2021/08/16 00:55:33;;;;;;;8.93;2.60;;;;;;;;;;5093326;28;20461;-86
2021/08/16 00:58:00;;;;;;;4.35;2.65;;;;;;;;;;5094370;28;20024;-85
2021/08/16 01:00:26;;;;;;;5.68;2.42;;;;;;;;;;5092986;28;20081;-84
2021/08/16 01:02:52;;;;;;;7.00;2.55;;;;;;;;;;5093075;28;20035;-84
2021/08/16 01:05:18;;;;;;;14.00;2.05;;;;;;;;;;5092939;28;20495;-87
2021/08/16 01:07:46;;;;;;;6.68;2.47;;;;;;;;;;5093000;28;20115;-88
2021/08/16 01:10:13;;;;;;;7.63;2.53;;;;;;;;;;5092845;28;20020;-84
2021/08/16 01:12:39;;;;;;;9.05;2.65;;;;;;;;;;5094661;28;20012;-84
2021/08/16 01:15:06;;;;;;;6.50;2.75;;;;;;;;;;5094738;28;20035;-89
2021/08/16 01:17:33;;;;;;;10.07;2.65;;;;;;;;;;5092729;28;20519;-86
2021/08/16 01:20:00;;;;;;;7.28;2.60;;;;;;;;;;5094623;28;20074;-85
2021/08/16 01:22:26;;;;;;;7.10;2.70;;;;;;;;;;5092737;28;20095;-84
2021/08/16 01:24:52;;;;;;;8.05;2.53;;;;;;;;;;5092639;28;20036;-89
2021/08/16 01:27:18;;;;;;;5.47;2.70;;;;;;;;;;5092578;28;20036;-82
2021/08/16 01:29:44;;;;;;;5.93;2.70;;;;;;;;;;5093863;28;20043;-82
2021/08/16 01:32:10;;;;;;;7.28;3.35;;;;;;;;;;5092665;28;20059;-84
2021/08/16 01:34:37;;;;;;;9.05;2.72;;;;;;;;;;5092563;28;20476;-85
2021/08/16 01:37:03;;;;;;;5.03;2.22;;;;;;;;;;5092605;28;20024;-84
2021/08/16 01:39:29;;;;;;;6.35;1.70;;;;;;;;;;5092431;28;20077;-83
2021/08/16 01:41:56;;;;;;;6.68;1.88;;;;;;;;;;5093713;28;20021;-82
2021/08/16 01:44:23;;;;;;;9.55;1.83;;;;;;;;;;5092223;28;20508;-84
2021/08/16 01:46:50;;;;;;;7.75;1.85;;;;;;;;;;5092358;28;20495;-82
2021/08/16 01:49:16;;;;;;;2.70;1.50;;;;;;;;;;5092396;28;20031;-84
2021/08/16 01:51:43;;;;;;;4.00;1.77;;;;;;;;;;5092392;28;20035;-83
2021/08/16 01:54:10;;;;;;;4.25;1.70;;;;;;;;;;5092248;28;20039;-83
2021/08/16 01:56:36;;;;;;;5.43;1.85;;;;;;;;;;5092025;28;20028;-83
2021/08/16 01:59:03;;;;;;;7.93;1.80;;;;;;;;;;5093495;28;20376;-85
2021/08/16 02:01:29;;;;;;;4.05;1.70;;;;;;;;;;5092196;28;20028;-85
2021/08/16 02:03:55;;;;;;;7.93;1.55;;;;;;;;;;5092334;28;20024;-89
2021/08/16 02:06:21;;;;;;;6.68;2.00;;;;;;;;;;5092089;28;20476;-85
2021/08/16 02:08:47;;;;;;;3.55;1.60;;;;;;;;;;5092232;28;20020;-85
2021/08/16 02:11:14;;;;;;;4.25;1.50;;;;;;;;;;5092112;28;20032;-82
2021/08/16 02:13:40;;;;;;;7.05;1.70;;;;;;;;;;5092079;28;20059;-88
2021/08/16 02:16:06;;;;;;;4.07;2.00;;;;;;;;;;5092211;28;20052;-84
2021/08/16 02:18:32;;;;;;;5.72;1.83;;;;;;;;;;5092046;28;20024;-85
2021/08/16 02:20:58;;;;;;;2.92;1.45;;;;;;;;;;5092183;28;20039;-83
2021/08/16 02:23:25;;;;;;;3.05;1.60;;;;;;;;;;5093355;28;20024;-85
2021/08/16 02:25:51;;;;;;;7.07;1.90;;;;;;;;;;5093209;28;20066;-83
2021/08/16 02:28:17;;;;;;;5.88;2.20;;;;;;;;;;5091950;28;20108;-83
2021/08/16 02:30:44;;;;;;;5.18;1.75;;;;;;;;;;5093668;28;20475;-84
2021/08/16 02:33:11;;;;;;;4.22;1.65;;;;;;;;;;5093133;28;20082;-83
2021/08/16 02:35:38;;;;;;;5.43;2.05;;;;;;;;;;5091868;28;20027;-83
2021/08/16 02:38:04;;;;;;;3.78;1.83;;;;;;;;;;5093794;28;20101;-87
2021/08/16 02:40:30;;;;;;;5.68;1.70;;;;;;;;;;5091892;28;20035;-84
2021/08/16 02:42:59;;;;;;;5.32;1.80;;;;;;;;;;5093048;28;20020;-85
2021/08/16 02:45:26;;;;;;;6.85;2.10;;;;;;;;;;5091631;28;20050;-85
2021/08/16 02:47:52;;;;;;;4.28;2.00;;;;;;;;;;5091870;28;20016;-86
2021/08/16 02:50:19;;;;;;;5.82;2.35;;;;;;;;;;5091781;28;20377;-85
2021/08/16 02:52:45;;;;;;;4.72;1.95;;;;;;;;;;5091931;28;20434;-91
2021/08/16 02:55:12;;;;;;;7.18;2.60;;;;;;;;;;5091681;28;20395;-84
2021/08/16 02:57:38;;;;;;;8.02;2.47;;;;;;;;;;5091736;28;20492;-84
2021/08/16 03:00:05;;;;;;;8.10;2.78;;;;;;;;;;5091655;28;20020;-83
2021/08/16 03:02:31;;;;;;;3.88;2.28;;;;;;;;;;5091762;28;20024;-83
2021/08/16 03:04:57;;;;;;;4.57;2.90;;;;;;;;;;5091633;28;20144;-83
2021/08/16 03:07:23;;;;;;;5.72;2.75;;;;;;;;;;5091752;28;20032;-85
2021/08/16 03:09:50;;;;;;;6.95;3.00;;;;;;;;;;5094556;28;20032;-84
2021/08/16 03:12:17;;;;;;;6.85;2.85;;;;;;;;;;5095156;28;20488;-83
2021/08/16 03:14:43;;;;;;;6.38;2.63;;;;;;;;;;5095078;28;20024;-85
2021/08/16 03:17:09;;;;;;;7.05;2.75;;;;;;;;;;5096504;28;20380;-84
2021/08/16 03:19:35;;;;;;;6.95;2.90;;;;;;;;;;5095067;28;20475;-84
2021/08/16 03:22:01;;;;;;;6.30;2.80;;;;;;;;;;5078222;28;20039;-85
2021/08/16 03:24:28;;;;;;;5.43;3.13;;;;;;;;;;5094947;28;20537;-88
2021/08/16 03:26:54;;;;;;;5.68;3.08;;;;;;;;;;5096174;28;20511;-82
2021/08/16 03:29:20;;;;;;;4.82;2.67;;;;;;;;;;5096735;28;20461;-83
2021/08/16 03:31:47;;;;;;;5.13;2.63;;;;;;;;;;5094817;28;20031;-82
2021/08/16 03:34:13;;;;;;;7.13;2.80;;;;;;;;;;5096091;28;20024;-84
2021/08/16 03:36:39;;;;;;;6.03;3.22;;;;;;;;;;5094675;28;20472;-83
2021/08/16 03:39:06;;;;;;;4.20;2.47;;;;;;;;;;5094679;28;20060;-84
2021/08/16 03:41:32;;;;;;;5.97;2.53;;;;;;;;;;5094625;28;20020;-83
2021/08/16 03:43:58;;;;;;;6.50;3.28;;;;;;;;;;5094417;28;20139;-82
2021/08/16 03:46:24;;;;;;;6.25;3.13;;;;;;;;;;5095697;28;20040;-83
2021/08/16 03:48:50;;;;;;;5.78;2.88;;;;;;;;;;5094483;28;20027;-83
2021/08/16 03:51:16;;;;;;;4.65;2.50;;;;;;;;;;5096275;28;20055;-85
2021/08/16 03:53:43;;;;;;;6.65;2.47;;;;;;;;;;5094432;28;20024;-82
2021/08/16 03:56:10;;;;;;;6.63;2.78;;;;;;;;;;5097050;28;20028;-83
2021/08/16 03:58:41;;;;;;;5.38;2.80;;;;;;;;;;5095305;28;20016;-82
2021/08/16 04:01:08;;;;;;;6.43;3.03;;;;;;;;;;5094672;28;20487;-83
2021/08/16 04:03:34;;;;;;;7.90;2.90;;;;;;;;;;5095025;28;20016;-85
2021/08/16 04:06:00;;;;;;;5.80;2.67;;;;;;;;;;5095075;28;20039;-83
2021/08/16 04:08:26;;;;;;;6.75;3.05;;;;;;;;;;5094960;28;20092;-83
2021/08/16 04:10:53;;;;;;;12.90;3.75;;;;;;;;;;5094801;28;20024;-83
2021/08/16 04:13:22;;;;;;;6.07;3.20;;;;;;;;;;5095102;28;20028;-83
2021/08/16 04:15:48;;;;;;;7.22;2.85;;;;;;;;;;5094498;28;20039;-83
2021/08/16 04:18:14;;;;;;;6.78;3.20;;;;;;;;;;5094656;28;20020;-82
2021/08/16 04:20:40;;;;;;;5.60;2.78;;;;;;;;;;5093800;28;20028;-87
2021/08/16 04:23:08;;;;;;;6.47;3.00;;;;;;;;;;5095642;28;20031;-82
2021/08/16 04:25:34;;;;;;;10.15;3.42;;;;;;;;;;5094900;28;20028;-83
2021/08/16 04:28:00;;;;;;;13.45;3.25;;;;;;;;;;5095288;28;20030;-85
2021/08/16 04:30:26;;;;;;;5.35;3.20;;;;;;;;;;5093749;28;20028;-88
2021/08/16 04:32:52;;;;;;;5.00;3.10;;;;;;;;;;5093653;28;20024;-83
2021/08/16 04:35:19;;;;;;;6.75;3.05;;;;;;;;;;5093598;28;20038;-83
2021/08/16 04:37:45;;;;;;;5.63;2.72;;;;;;;;;;5095454;28;20513;-87
2021/08/16 04:40:12;;;;;;;13.27;3.38;;;;;;;;;;5093624;28;20034;-82
2021/08/16 04:42:38;;;;;;;8.95;2.85;;;;;;;;;;5094738;28;20024;-82
2021/08/16 04:45:05;;;;;;;6.60;3.00;;;;;;;;;;5094305;28;20108;-83
2021/08/16 04:47:32;;;;;;;7.25;3.55;;;;;;;;;;5093231;28;20429;-84
2021/08/16 04:49:58;;;;;;;5.63;2.88;;;;;;;;;;5093289;28;20031;-84
2021/08/16 04:52:25;;;;;;;8.18;2.78;;;;;;;;;;5093284;28;20396;-84
2021/08/16 04:54:52;;;;;;;5.70;2.70;;;;;;;;;;5093284;28;20476;-84
2021/08/16 04:57:31;;;;;;;7.78;2.67;;;;;;;;;;5095294;28;20023;-86
2021/08/16 04:59:57;;;;;;;8.27;2.70;;;;;;;;;;5095058;28;20396;-84
2021/08/16 05:02:23;;;;;;;10.98;2.88;;;;;;;;;;5093511;28;20026;-90
2021/08/16 05:04:53;;;;;;;7.15;3.08;;;;;;;;;;5094725;28;20103;-90
2021/08/16 05:07:20;;;;;;;5.68;2.55;;;;;;;;;;5093567;28;20024;-89
2021/08/16 05:09:46;;;;;;;4.82;2.45;;;;;;;;;;5093313;28;20024;-84
2021/08/16 05:12:12;;;;;;;7.03;2.50;;;;;;;;;;5093009;28;20064;-89
2021/08/16 05:14:38;;;;;;;4.30;2.40;;;;;;;;;;5093358;28;20093;-84
2021/08/16 05:17:04;;;;;;;6.25;2.10;;;;;;;;;;5092557;28;20028;-84
2021/08/16 05:19:34;;;;;;;4.68;2.25;;;;;;;;;;5093157;28;20043;-91
2021/08/16 05:22:00;;;;;;;6.72;2.40;;;;;;;;;;5093119;28;20024;-86
2021/08/16 05:24:28;;;;;;;7.05;2.40;;;;;;;;;;5092276;28;20066;-83
2021/08/16 05:26:54;;;;;;;5.50;2.50;;;;;;;;;;5094110;28;20024;-84
2021/08/16 05:29:20;;;;;;;10.48;2.63;;;;;;;;;;5092687;28;20380;-86
2021/08/16 05:31:46;;;;;;;4.68;2.38;;;;;;;;;;5091913;28;20053;-85
2021/08/16 05:34:12;;;;;;;8.20;2.47;;;;;;;;;;5093855;28;20023;-84
2021/08/16 05:36:39;;;;;;;6.60;2.05;;;;;;;;;;5093950;28;20028;-83
2021/08/16 05:39:05;;;;;;;15.13;2.42;;;;;;;;;;5094242;28;20469;-86
2021/08/16 05:41:31;;;;;;;7.75;2.30;;;;;;;;;;5093482;28;20024;-93
2021/08/16 05:43:58;;;;;;;4.97;1.60;;;;;;;;;;5076155;28;20044;-86
2021/08/16 05:46:24;;;;;;;4.75;1.35;;;;;;;;;;5092992;28;20036;-90
2021/08/16 05:48:50;;;;;;;4.07;1.58;;;;;;;;;;5093444;28;20119;-92
2021/08/16 05:51:16;;;;;;;3.92;1.60;;;;;;;;;;5093058;28;20034;-91
2021/08/16 05:53:42;;;;;;;8.25;1.75;;;;;;;;;;5093216;28;20054;-89
2021/08/16 05:56:08;;;;;;;5.07;1.90;;;;;;;;;;5094191;28;20031;-89
2021/08/16 05:58:34;;;;;;;7.35;1.83;;;;;;;;;;5093198;28;20120;-94
2021/08/16 06:01:00;;;;;;;7.22;2.10;;;;;;;;;;5094149;28;20029;-96
2021/08/16 06:03:27;;;;;;;3.13;1.40;;;;;;;;;;5093623;28;20024;-93
2021/08/16 06:05:53;;;;;;;7.15;1.98;;;;;;;;;;5092960;28;20032;-93
2021/08/16 06:08:19;;;;;;;6.55;1.67;;;;;;;;;;5093651;28;20023;-94
2021/08/16 06:10:45;;;;;;;8.73;1.80;;;;;;;;;;5093473;28;20111;-94
2021/08/16 06:13:11;;;;;;;3.25;1.40;;;;;;;;;;5093599;28;20021;-95
2021/08/16 06:15:38;;;;;;;5.18;1.50;;;;;;;;;;5093052;28;20024;-92
2021/08/16 06:18:04;;;;;;;5.80;1.58;;;;;;;;;;5092993;28;20048;-88
2021/08/16 06:20:30;;;;;;;3.20;1.83;;;;;;;;;;5093266;28;20063;-86
2021/08/16 06:22:56;;;;;;;6.63;2.10;;;;;;;;;;5093342;28;20091;-93
2021/08/16 06:25:22;;;;;;;7.38;2.53;;;;;;;;;;5093176;28;20081;-92
2021/08/16 06:27:49;;;;;;;6.38;2.25;;;;;;;;;;5092806;28;20028;-92
2021/08/16 06:30:15;;;;;;;7.25;2.05;;;;;;;;;;5093476;28;20024;-93
2021/08/16 06:32:41;;;;;;;4.18;1.73;;;;;;;;;;5093191;28;20110;-93
2021/08/16 06:35:07;;;;;;;5.55;1.55;;;;;;;;;;5093857;28;20068;-93
2021/08/16 06:37:34;;;;;;;2.92;1.30;;;;;;;;;;5093242;28;20028;-91
2021/08/16 06:40:00;;;;;;;4.40;1.38;;;;;;;;;;5093287;28;20036;-90
2021/08/16 06:42:26;;;;;;;3.30;1.30;;;;;;;;;;5094936;28;20024;-89
2021/08/16 06:44:52;;;;;;;8.20;1.88;;;;;;;;;;5095939;28;20185;-93
2021/08/16 06:47:19;;;;;;;4.15;1.30;;;;;;;;;;5079551;28;20126;-91
2021/08/16 06:49:45;;;;;;;3.13;1.38;;;;;;;;;;5096678;28;20032;-88
2021/08/16 06:52:11;;;;;;;4.65;1.92;;;;;;;;;;5096574;28;20030;-93
2021/08/16 06:54:37;;;;;;;4.22;1.85;;;;;;;;;;5096820;28;20107;-92
2021/08/16 06:57:04;;;;;;;5.72;1.50;;;;;;;;;;5096943;28;20458;-93
2021/08/16 06:59:30;;;;;;;8.77;2.00;;;;;;;;;;5096472;28;20067;-93
2021/08/16 07:01:56;;;;;;;3.58;1.42;;;;;;;;;;5096567;28;20044;-90
2021/08/16 07:04:24;;;;;;;6.22;1.58;;;;;;;;;;5096250;28;20052;-89
2021/08/16 07:06:50;;;;;;;7.25;1.65;;;;;;;;;;5097491;28;20036;-93
2021/08/16 07:09:16;;;;;;;4.15;1.30;;;;;;;;;;5098237;28;20097;-93
2021/08/16 07:11:42;;;;;;;4.25;1.60;;;;;;;;;;5097888;28;20052;-95
2021/08/16 07:14:08;;;;;;;8.80;1.48;;;;;;;;;;5096953;28;20058;-93
2021/08/16 07:16:35;;;;;;;5.20;2.08;;;;;;;;;;5096510;28;20016;-91
2021/08/16 07:19:01;;;;;;;4.35;1.58;;;;;;;;;;5096426;28;20024;-94
2021/08/16 07:21:27;;;;;;;4.45;1.80;;;;;;;;;;5096597;28;20358;-92
2021/08/16 07:23:55;;;;;;;5.65;1.45;;;;;;;;;;5096332;28;20024;-92
2021/08/16 07:26:21;;;;;;;8.15;2.00;;;;;;;;;;5096088;28;20046;-91
2021/08/16 07:28:48;;;;;;;7.82;2.00;;;;;;;;;;5096152;28;20028;-91
2021/08/16 07:31:14;;;;;;;9.02;1.73;;;;;;;;;;5095796;28;20122;-92
2021/08/16 07:33:41;;;;;;;5.50;1.40;;;;;;;;;;5097711;28;20024;-94
2021/08/16 07:36:07;;;;;;;4.07;1.65;;;;;;;;;;5095848;28;20540;-94
2021/08/16 07:38:34;;;;;;;3.47;1.67;;;;;;;;;;5095778;28;20030;-92
2021/08/16 07:41:00;;;;;;;7.38;2.08;;;;;;;;;;5095300;28;20032;-90
2021/08/16 07:43:26;;;;;;;5.40;1.48;;;;;;;;;;5095861;28;20031;-93
2021/08/16 07:45:52;;;;;;;6.43;1.73;;;;;;;;;;5094474;28;20093;-89
2021/08/16 07:48:18;;;;;;;4.30;1.25;;;;;;;;;;5094883;28;20031;-90
2021/08/16 07:50:45;;;;;;;6.60;1.60;;;;;;;;;;5094133;28;20032;-88
2021/08/16 07:53:11;;;;;;;4.15;1.73;;;;;;;;;;5096979;28;20016;-88
2021/08/16 07:55:37;;;;;;;3.03;1.55;;;;;;;;;;5096228;28;20024;-90
2021/08/16 07:58:03;;;;;;;3.42;1.58;;;;;;;;;;5094004;28;20024;-90
2021/08/16 08:00:30;;;;;;;5.40;1.52;;;;;;;;;;5094015;28;20031;-89
2021/08/16 08:02:56;;;;;;;7.65;1.85;;;;;;;;;;5095484;28;20095;-89
2021/08/16 08:05:24;;;;;;;4.30;1.48;;;;;;;;;;5094129;28;20040;-89
2021/08/16 08:07:51;;;;;;;5.70;1.58;;;;;;;;;;5095432;28;20012;-89
2021/08/16 08:10:18;;;;;;;3.67;1.65;;;;;;;;;;5095717;28;20028;-92
2021/08/16 08:12:45;;;;;;;3.00;1.42;;;;;;;;;;5094783;28;20060;-92
2021/08/16 08:15:12;;;;;;;3.65;1.40;;;;;;;;;;5094627;28;20032;-92
2021/08/16 08:17:39;;;;;;;7.05;1.77;;;;;;;;;;5094841;28;20097;-93
2021/08/16 08:20:06;;;;;;;28.00;2.00;;;;;;;;;;5094561;28;20107;-92
2021/08/16 08:22:33;;;;;;;7.65;1.52;;;;;;;;;;5095032;28;20354;-91
2021/08/16 08:25:00;;;;;;;5.57;1.50;;;;;;;;;;5094326;28;20398;-91
2021/08/16 08:27:26;;;;;;;8.38;1.70;;;;;;;;;;5094153;28;20051;-92
2021/08/16 08:29:52;;;;;;;4.55;1.75;;;;;;;;;;5094386;28;20024;-92
2021/08/16 08:32:19;;;;;;;5.00;1.20;;;;;;;;;;5094646;28;20073;-90
2021/08/16 08:34:45;;;;;;;4.90;1.48;;;;;;;;;;5095623;28;20468;-91
2021/08/16 08:37:13;;;;;;;4.88;1.10;;;;;;;;;;5094729;28;20027;-93
2021/08/16 08:39:40;;;;;;;4.32;1.40;;;;;;;;;;5096940;28;20096;-92
2021/08/16 08:42:07;;;;;;;5.32;1.42;;;;;;;;;;5099831;28;20074;-91
2021/08/16 08:44:34;;;;;;;13.68;1.50;;;;;;;;;;5096364;28;20492;-90
2021/08/16 08:47:00;;;;;;;9.18;1.63;;;;;;;;;;5093615;28;20032;-90
2021/08/16 08:49:27;;;;;;;5.85;1.80;;;;;;;;;;5094177;28;20028;-91
2021/08/16 08:52:02;;;;;;;15.98;2.25;;;;;;;;;;5095675;28;20027;-94
2021/08/16 08:54:29;;;;;;;3.92;1.52;;;;;;;;;;5097049;28;20024;-90
2021/08/16 08:56:56;;;;;;;5.13;1.42;;;;;;;;;;5098611;28;20025;-93
2021/08/16 08:59:23;;;;;;;14.02;1.85;;;;;;;;;;5095831;28;20394;-89
2021/08/16 09:01:54;;;;;;;2.90;1.30;;;;;;;;;;5095682;28;20028;-91
2021/08/16 09:04:20;;;;;;;3.58;1.58;;;;;;;;;;5095602;28;20024;-94
2021/08/16 09:06:46;;;;;;;3.33;1.52;;;;;;;;;;5093718;28;20040;-92
2021/08/16 09:09:13;;;;;;;5.72;1.50;;;;;;;;;;5098307;28;20035;-91
2021/08/16 09:11:42;;;;;;;6.13;1.77;;;;;;;;;;5097166;28;20019;-91
2021/08/16 09:14:09;;;;;;;18.02;2.08;;;;;;;;;;5096259;28;20039;-90
2021/08/16 09:16:37;;;;;;;3.75;1.27;;;;;;;;;;5095354;28;20471;-90
2021/08/16 09:19:23;;;;;;;4.25;1.50;;;;;;;;;;5093815;28;20023;-89
2021/08/16 09:22:10;;;;;;;6.97;1.80;;;;;;;;;;5093332;28;20033;-88
2021/08/16 09:24:37;;;;;;;3.78;1.52;;;;;;;;;;5093214;28;20028;-89
2021/08/16 09:27:09;;;;;;;4.38;1.58;;;;;;;;;;5093939;28;20056;-91
2021/08/16 09:29:35;;;;;;;11.52;2.20;;;;;;;;;;5095508;28;20031;-89
2021/08/16 09:32:03;;;;;;;7.85;1.73;;;;;;;;;;5095559;28;20115;-90
2021/08/16 09:34:31;;;;;;;6.45;1.73;;;;;;;;;;5095124;28;20028;-92
2021/08/16 09:37:01;;;;;;;10.15;1.50;;;;;;;;;;5093612;28;20031;-91
2021/08/16 09:39:28;;;;;;;5.32;1.70;;;;;;;;;;5093461;28;20020;-91
2021/08/16 09:41:58;;;;;;;16.38;1.63;;;;;;;;;;5093383;28;20123;-91
2021/08/16 09:44:24;;;;;;;10.90;2.17;;;;;;;;;;5093052;28;20373;-92
2021/08/16 09:47:00;;;;;;;4.95;1.65;;;;;;;;;;5093045;28;20484;-89
2021/08/16 09:49:26;;;;;;;3.50;1.50;;;;;;;;;;5093284;28;20114;-91
2021/08/16 09:52:03;;;;;;;5.20;1.63;;;;;;;;;;5093251;28;20028;-93
2021/08/16 09:54:33;;;;;;;5.18;1.83;;;;;;;;;;5094919;28;20035;-90
2021/08/16 09:57:01;;;;;;;6.95;1.70;;;;;;;;;;5092728;28;20393;-89
2021/08/16 09:59:28;;;;;;;3.92;1.70;;;;;;;;;;5093812;28;20389;-92
2021/08/16 10:01:54;;;;;;;6.93;1.98;;;;;;;;;;5094079;28;20024;-90
2021/08/16 10:04:20;;;;;;;4.22;1.70;;;;;;;;;;5092840;28;20031;-91
2021/08/16 10:06:47;;;;;;;4.07;1.80;;;;;;;;;;5092861;28;20105;-91
2021/08/16 10:09:13;;;;;;;8.70;1.88;;;;;;;;;;5092751;28;20384;-90
2021/08/16 10:11:40;;;;;;;4.60;1.80;;;;;;;;;;5093762;28;20039;-89
2021/08/16 10:14:06;;;;;;;4.75;1.90;;;;;;;;;;5093009;28;20077;-91
2021/08/16 10:16:34;;;;;;;4.25;1.80;;;;;;;;;;5092660;28;20495;-90
2021/08/16 10:19:05;;;;;;;9.00;2.03;;;;;;;;;;5096363;28;20026;-92
2021/08/16 10:21:38;;;;;;;8.85;2.10;;;;;;;;;;5101751;28;20046;-94
2021/08/16 10:24:14;;;;;;;5.70;2.05;;;;;;;;;;5096700;28;20056;-91
2021/08/16 10:26:41;;;;;;;8.00;2.55;;;;;;;;;;5096631;28;20058;-92
2021/08/16 10:29:10;;;;;;;6.85;1.75;;;;;;;;;;5096537;28;20464;-89
2021/08/16 10:31:38;;;;;;;8.60;1.98;;;;;;;;;;5096339;28;20047;-90
2021/08/16 10:34:05;;;;;;;14.15;2.60;;;;;;;;;;5096504;28;20020;-92
2021/08/16 10:36:31;;;;;;;11.80;2.25;;;;;;;;;;5096672;28;20074;-91
2021/08/16 10:39:01;;;;;;;7.50;2.03;;;;;;;;;;5096155;28;20369;-88
2021/08/16 10:41:35;;;;;;;12.52;2.60;;;;;;;;;;5095918;28;20384;-90
2021/08/16 10:44:10;;;;;;;6.28;2.70;;;;;;;;;;5096154;28;20056;-90
2021/08/16 10:46:37;;;;;;;5.63;2.28;;;;;;;;;;5098354;28;20032;-89
2021/08/16 10:49:04;;;;;;;6.13;2.60;;;;;;;;;;5099321;28;20031;-91
2021/08/16 10:51:42;;;;;;;19.30;3.03;;;;;;;;;;5096350;28;20024;-89
2021/08/16 10:54:08;;;;;;;7.57;2.60;;;;;;;;;;5095403;28;20485;-85
2021/08/16 10:56:34;;;;;;;6.05;2.70;;;;;;;;;;5096455;28;20047;-90
2021/08/16 10:59:01;;;;;;;9.55;2.97;;;;;;;;;;5097846;28;20501;-91
2021/08/16 11:01:31;;;;;;;8.63;2.63;;;;;;;;;;5096169;28;20022;-91
2021/08/16 11:04:02;;;;;;;9.60;2.88;;;;;;;;;;5095778;28;20039;-90
2021/08/16 11:06:28;;;;;;;8.27;2.80;;;;;;;;;;5095253;28;20477;-90
2021/08/16 11:08:56;;;;;;;8.60;2.80;;;;;;;;;;5095579;28;20020;-92
2021/08/16 11:11:22;;;;;;;8.18;3.15;;;;;;;;;;5095669;28;20522;-90
2021/08/16 11:13:48;;;;;;;9.25;3.05;;;;;;;;;;5095728;28;20031;-90
2021/08/16 11:16:15;;;;;;;8.20;3.05;;;;;;;;;;5097448;28;20095;-91
2021/08/16 11:18:43;;;;;;;6.43;3.30;;;;;;;;;;5095931;28;20028;-92
2021/08/16 11:21:10;;;;;;;12.40;3.60;;;;;;;;;;5095824;28;20116;-92
2021/08/16 11:23:39;;;;;;;8.85;2.85;;;;;;;;;;5096509;28;20032;-91
2021/08/16 11:26:05;;;;;;;7.68;2.90;;;;;;;;;;5095466;28;20145;-92
2021/08/16 11:28:32;;;;;;;8.02;2.90;;;;;;;;;;5090821;28;20024;-88
2021/08/16 11:31:03;;;;;;;10.27;3.17;;;;;;;;;;5095219;28;20031;-88
2021/08/16 11:33:30;;;;;;;7.03;3.30;;;;;;;;;;5095785;28;20112;-88
2021/08/16 11:36:09;;;;;;;8.02;3.05;;;;;;;;;;5094486;28;20081;-87
2021/08/16 11:38:36;;;;;;;7.68;3.67;;;;;;;;;;5094534;28;20035;-87
2021/08/16 11:41:03;;;;;;;12.32;3.03;;;;;;;;;;5094586;28;20408;-90
2021/08/16 11:43:29;;;;;;;7.70;3.20;;;;;;;;;;5094214;28;20564;-87
2021/08/16 11:45:55;;;;;;;5.93;3.75;;;;;;;;;;5096254;28;20028;-87
2021/08/16 11:48:23;;;;;;;4.45;2.60;;;;;;;;;;5094798;28;20118;-89
2021/08/16 11:50:56;;;;;;;7.80;3.17;;;;;;;;;;5094663;28;20038;-89
2021/08/16 11:53:22;;;;;;;5.25;2.75;;;;;;;;;;5094605;28;20024;-89
2021/08/16 11:55:48;;;;;;;11.02;3.45;;;;;;;;;;5094050;28;20487;-91
2021/08/16 11:58:14;;;;;;;8.18;3.30;;;;;;;;;;5093864;28;20028;-87
2021/08/16 12:00:41;;;;;;;5.97;2.92;;;;;;;;;;5095030;28;20350;-88
2021/08/16 12:03:08;;;;;;;13.68;2.97;;;;;;;;;;5094369;28;20020;-89
2021/08/16 12:05:34;;;;;;;11.70;3.35;;;;;;;;;;5094547;28;20043;-90
2021/08/16 12:08:00;;;;;;;7.95;3.53;;;;;;;;;;5095425;28;20020;-91
2021/08/16 12:10:27;;;;;;;8.88;3.10;;;;;;;;;;5095360;28;20027;-87
2021/08/16 12:12:58;;;;;;;13.02;3.40;;;;;;;;;;5094084;28;20031;-88
2021/08/16 12:15:24;;;;;;;7.25;3.10;;;;;;;;;;5095336;28;20031;-86
2021/08/16 12:17:53;;;;;;;8.52;3.15;;;;;;;;;;5093755;28;20020;-86
2021/08/16 12:20:20;;;;;;;7.25;2.97;;;;;;;;;;5094372;28;20028;-91
2021/08/16 12:22:54;;;;;;;8.20;2.83;;;;;;;;;;5095112;28;20016;-88
2021/08/16 12:25:21;;;;;;;8.82;3.40;;;;;;;;;;5095437;28;20090;-86
2021/08/16 12:28:13;;;;;;;7.70;2.92;;;;;;;;;;5093768;28;20476;-86
2021/08/16 12:30:39;;;;;;;;;;;;;;;;;;5090653;28;20039;-87
2021/08/16 12:33:06;;;;;;;6.70;3.00;;;;;;;;;;5093921;28;19914;-87
2021/08/16 12:35:33;;;;;;;5.20;3.00;;;;;;;;;;5094718;28;20012;-87
2021/08/16 12:38:02;;;;;;;7.10;2.90;;;;;;;;;;5093355;28;20035;-87
2021/08/16 12:40:29;;;;;;;8.70;3.35;;;;;;;;;;5093385;28;20020;-86
2021/08/16 12:43:01;;;;;;;9.75;3.05;;;;;;;;;;5093525;28;20077;-88
2021/08/16 12:45:28;;;;;;;8.15;3.55;;;;;;;;;;5093247;28;20048;-88
2021/08/16 12:48:01;;;;;;;6.25;2.75;;;;;;;;;;5093300;28;20059;-87
2021/08/16 12:50:28;;;;;;;8.27;3.05;;;;;;;;;;5094222;28;20035;-88
2021/08/16 12:52:54;;;;;;;10.82;3.17;;;;;;;;;;5092576;28;20016;-87
2021/08/16 12:55:20;;;;;;;8.82;3.35;;;;;;;;;;5094399;28;20356;-86
2021/08/16 12:57:46;;;;;;;7.00;2.78;;;;;;;;;;5093096;28;20024;-87
2021/08/16 13:00:12;;;;;;;10.70;3.17;;;;;;;;;;5093055;28;20028;-86
2021/08/16 13:02:41;;;;;;;11.45;3.13;;;;;;;;;;5094344;28;20026;-87
2021/08/16 13:05:08;;;;;;;9.52;2.88;;;;;;;;;;5092832;28;20032;-88
2021/08/16 13:07:34;;;;;;;7.93;3.25;;;;;;;;;;5092933;28;20047;-87
2021/08/16 13:10:00;;;;;;;6.63;2.75;;;;;;;;;;5094200;28;20016;-88
2021/08/16 13:12:26;;;;;;;10.35;2.85;;;;;;;;;;5092901;28;20028;-87
2021/08/16 13:14:53;;;;;;;11.68;3.15;;;;;;;;;;5093058;28;20052;-87
2021/08/16 13:17:19;;;;;;;7.07;2.80;;;;;;;;;;5092780;28;20032;-87
2021/08/16 13:19:45;;;;;;;9.82;4.60;;;;;;;;;;5093948;28;20102;-89
2021/08/16 13:22:12;;;;;;;13.13;6.25;;;;;;;;;;5093387;28;20030;-91
2021/08/16 13:24:38;;;;;;;11.50;4.70;;;;;;;;;;5074247;28;20081;-87
2021/08/16 13:27:04;;;;;;;10.63;5.10;;;;;;;;;;5091305;28;20485;-90
2021/08/16 13:29:30;;;;;;;8.13;4.60;;;;;;;;;;5089723;28;20025;-89
2021/08/16 13:31:57;;;;;;;8.52;4.38;;;;;;;;;;5089326;28;20032;-87
2021/08/16 13:34:23;;;;;;;16.13;5.43;;;;;;;;;;5089016;28;20028;-88
2021/08/16 13:36:50;;;;;;;55.05;6.55;;;;;;;;;;5088895;28;20029;-89
2021/08/16 13:39:17;;;;;;;8.80;3.92;;;;;;;;;;5073181;28;20098;-86
2021/08/16 13:41:43;;;;;;;10.63;3.10;;;;;;;;;;5088520;28;20024;-86
2021/08/16 13:44:10;;;;;;;8.65;3.05;;;;;;;;;;5088284;28;20045;-88
2021/08/16 13:46:36;;;;;;;6.10;3.30;;;;;;;;;;5073083;28;20033;-87
2021/08/16 13:49:02;;;;;;;7.45;3.05;;;;;;;;;;5088747;28;20414;-87
2021/08/16 13:51:28;;;;;;;9.73;3.13;;;;;;;;;;5088675;28;20055;-86
2021/08/16 13:53:54;;;;;;;15.27;3.42;;;;;;;;;;5088337;28;20056;-87
2021/08/16 13:56:20;;;;;;;8.77;3.38;;;;;;;;;;5088569;28;20051;-91
2021/08/16 13:58:46;;;;;;;8.07;3.65;;;;;;;;;;5088423;28;20059;-87
2021/08/16 14:01:15;;;;;;;7.30;2.85;;;;;;;;;;5088409;28;20074;-87
2021/08/16 14:03:41;;;;;;;9.07;2.85;;;;;;;;;;5088641;28;20020;-87
2021/08/16 14:06:08;;;;;;;8.73;3.47;;;;;;;;;;5088265;28;20037;-85
2021/08/16 14:08:34;;;;;;;5.32;2.88;;;;;;;;;;5088694;28;20024;-85
2021/08/16 14:11:01;;;;;;;12.70;3.13;;;;;;;;;;5088500;28;20487;-88
2021/08/16 14:13:28;;;;;;;7.32;3.40;;;;;;;;;;5091153;28;20737;-88
2021/08/16 14:15:55;;;;;;;7.05;3.13;;;;;;;;;;5092058;28;20498;-87
2021/08/16 14:18:21;;;;;;;7.28;3.00;;;;;;;;;;5092641;28;20165;-92
2021/08/16 14:20:48;;;;;;;5.70;3.33;;;;;;;;;;5092990;28;20233;-91
2021/08/16 14:23:17;;;;;;;5.80;3.22;;;;;;;;;;5092011;28;20032;-90
2021/08/16 14:25:43;;;;;;;9.73;3.50;;;;;;;;;;5092100;28;20038;-89
2021/08/16 14:28:09;;;;;;;9.55;3.30;;;;;;;;;;5092123;28;20107;-89
2021/08/16 14:30:38;;;;;;;14.38;3.17;;;;;;;;;;5094057;28;20062;-89
2021/08/16 14:33:05;;;;;;;7.57;3.17;;;;;;;;;;5092444;28;20047;-90
2021/08/16 14:35:31;;;;;;;10.63;3.72;;;;;;;;;;5092676;28;20074;-91
2021/08/16 14:37:57;;;;;;;9.88;3.60;;;;;;;;;;5092855;28;20067;-90
2021/08/16 14:40:23;;;;;;;9.57;3.40;;;;;;;;;;5092995;28;20039;-90